Time;durP1;ratioP1;P1;durP2;ratioP2;P2;SDS_P1;SDS_P2;PMS_P1;PMS_P2;Temp;Humidity;BMP_temperature;BMP_pressure;BME280_temperature;BME280_humidity;BME280_pressure;Samples;Min_cycle;Max_cycle;Signal;HPM_P1;HPM_P2
2023/10/14 15:45:25;;;;;;;;;;;17.80;82.10;;;;;;5133787;27;19922;-90
2023/10/14 15:47:52;;;;;;;;;;;17.70;83.60;;;;;;5131631;27;19961;-92
2023/10/14 15:50:18;;;;;;;;;;;17.70;85.10;;;;;;5131282;27;19912;-89
2023/10/14 15:52:44;;;;;;;;;;;17.70;85.90;;;;;;5132369;27;19912;-90
2023/10/14 15:55:13;;;;;;;;;;;17.70;86.50;;;;;;5132385;27;19966;-91
2023/10/14 15:57:40;;;;;;;;;;;17.80;87.10;;;;;;5130580;27;19912;-90
2023/10/14 16:00:09;;;;;;;;;;;17.80;87.30;;;;;;5129173;28;19915;-90
2023/10/14 16:02:35;;;;;;;;;;;17.80;88.20;;;;;;5130734;28;19915;-93
2023/10/14 16:05:01;;;;;;;;;;;17.90;88.20;;;;;;5131772;27;19916;-93
2023/10/14 16:07:27;;;;;;;;;;;17.90;88.50;;;;;;5130787;28;19908;-92
2023/10/14 16:09:52;;;;;;;;;;;17.90;88.40;;;;;;5131930;27;19912;-93
2023/10/14 16:12:18;;;;;;;;;;;17.90;88.70;;;;;;5130505;28;19939;-91
2023/10/14 16:14:47;;;;;;;;;;;17.90;88.90;;;;;;5130293;28;20380;-93
2023/10/14 16:17:16;;;;;;;;;;;18.00;89.00;;;;;;5130504;27;20344;-94
2023/10/14 16:19:42;;;;;;;;;;;18.00;89.00;;;;;;5130327;27;20010;-92
2023/10/14 16:22:07;;;;;;;;;;;18.00;89.20;;;;;;5130519;28;20324;-92
2023/10/14 16:24:33;;;;;;;;;;;18.00;89.40;;;;;;5130378;27;19912;-93
2023/10/14 16:26:58;;;;;;;;;;;18.00;89.00;;;;;;5130299;28;19954;-94
2023/10/14 16:29:24;;;;;;;;;;;18.00;89.00;;;;;;5130313;27;19908;-91
2023/10/14 16:31:50;;;;;;;;;;;17.90;89.10;;;;;;5131571;27;19908;-91
2023/10/14 16:34:15;;;;;;;;;;;17.90;89.20;;;;;;5130473;28;19912;-93
2023/10/14 16:36:41;;;;;;;;;;;17.90;88.90;;;;;;5130442;27;19911;-90
2023/10/14 16:39:09;;;;;;;;;;;17.90;88.90;;;;;;5130957;28;19957;-93
2023/10/14 16:41:34;;;;;;;;;;;17.90;89.10;;;;;;5130562;27;20363;-93
2023/10/14 16:44:00;;;;;;;;;;;17.90;89.30;;;;;;5131468;27;20061;-92
2023/10/14 16:46:25;;;;;;;;;;;17.90;89.10;;;;;;5130392;27;19911;-94
2023/10/14 16:48:51;;;;;;;;;;;17.80;89.20;;;;;;5129882;28;19919;-92
2023/10/14 16:51:16;;;;;;;;;;;17.80;89.30;;;;;;5127990;27;19918;-91
2023/10/14 16:53:47;;;;;;;;;;;17.80;89.20;;;;;;5129820;27;19912;-94
2023/10/14 16:56:16;;;;;;;;;;;17.80;89.40;;;;;;5117449;28;19934;-91
2023/10/14 16:58:44;;;;;;;;;;;17.70;89.30;;;;;;5115101;28;19908;-94
2023/10/14 17:01:10;;;;;;;;;;;17.70;89.30;;;;;;5118024;28;19955;-94
2023/10/14 17:03:38;;;;;;;;;;;17.70;89.40;;;;;;5117220;28;19907;-95
2023/10/14 17:06:08;;;;;;;;;;;17.70;89.40;;;;;;5125869;27;19961;-95
2023/10/14 17:08:35;;;;;;;;;;;17.60;89.50;;;;;;5101043;28;20006;-95
2023/10/14 17:11:06;;;;;;;;;;;17.60;89.50;;;;;;5100814;28;19939;-89
2023/10/14 17:13:32;;;;;;;;;;;17.60;89.60;;;;;;5113826;28;19912;-89
2023/10/14 17:15:59;;;;;;;;;;;17.50;89.60;;;;;;5125549;28;19923;-95
2023/10/14 17:18:25;;;;;;;;;;;17.50;89.70;;;;;;5124249;28;19908;-90
2023/10/14 17:20:51;;;;;;;;;;;17.50;89.90;;;;;;5118785;28;19907;-96
2023/10/14 17:23:18;;;;;;;;;;;17.50;89.90;;;;;;5117524;28;20306;-95
2023/10/14 17:25:43;;;;;;;;;;;17.40;89.90;;;;;;5107802;28;19912;-91
2023/10/14 17:28:11;;;;;;;;;;;17.40;89.90;;;;;;5101536;28;19908;-96
2023/10/14 17:30:40;;;;;;;;;;;17.40;89.90;;;;;;5099558;28;19916;-93
2023/10/14 17:33:07;;;;;;;;;;;17.40;90.00;;;;;;5102442;28;19927;-90
2023/10/14 17:35:33;;;;;;;;;;;17.40;90.00;;;;;;5098336;28;19916;-94
2023/10/14 17:37:59;;;;;;;;;;;17.30;90.10;;;;;;5097238;28;19908;-95
2023/10/14 17:40:29;;;;;;;;;;;17.30;90.10;;;;;;5097796;28;20008;-94
2023/10/14 17:43:03;;;;;;;;;;;17.30;90.10;;;;;;5096427;28;19953;-90
2023/10/14 17:45:30;;;;;;;;;;;17.30;90.20;;;;;;5113605;27;19919;-94
2023/10/14 17:47:58;;;;;;;;;;;17.20;90.20;;;;;;5118729;28;19909;-93
2023/10/14 17:50:25;;;;;;;;;;;17.20;90.20;;;;;;5116533;27;19922;-90
2023/10/14 17:52:54;;;;;;;;;;;17.20;90.20;;;;;;5116594;28;19912;-91
2023/10/14 17:55:22;;;;;;;;;;;17.20;90.30;;;;;;5116570;28;19911;-91
2023/10/14 17:57:50;;;;;;;;;;;17.20;90.30;;;;;;5116581;28;19908;-91
2023/10/14 18:00:25;;;;;;;;;;;17.10;90.30;;;;;;5110557;28;19916;-93
2023/10/14 18:02:55;;;;;;;;;;;17.10;90.30;;;;;;5100237;28;19912;-89
2023/10/14 18:05:23;;;;;;;;;;;17.10;90.30;;;;;;5099412;28;19909;-93
2023/10/14 18:07:49;;;;;;;;;;;17.10;90.40;;;;;;5110615;28;19939;-93
2023/10/14 18:10:14;;;;;;;;;;;17.10;90.40;;;;;;5101117;28;19917;-93
2023/10/14 18:12:41;;;;;;;;;;;17.00;90.50;;;;;;5114130;28;20284;-95
2023/10/14 18:15:12;;;;;;;;;;;17.00;90.40;;;;;;5112492;28;19938;-95
2023/10/14 18:17:45;;;;;;;;;;;16.90;90.50;;;;;;5129768;27;19909;-92
2023/10/14 18:20:14;;;;;;;;;;;16.90;90.50;;;;;;5130598;27;19912;-94
2023/10/14 18:22:41;;;;;;;;;;;16.90;90.50;;;;;;5098423;28;19912;-95
2023/10/14 18:25:09;;;;;;;;;;;16.80;90.60;;;;;;5102880;28;19913;-94
2023/10/14 18:27:34;;;;;;;;;;;16.80;90.60;;;;;;5105063;28;19969;-91
2023/10/14 18:30:00;;;;;;;;;;;16.80;90.70;;;;;;5115802;28;20348;-91
2023/10/14 18:32:25;;;;;;;;;;;16.80;90.70;;;;;;5101575;28;19912;-91
2023/10/14 18:34:51;;;;;;;;;;;16.80;90.80;;;;;;5093995;28;19916;-93
2023/10/14 18:37:16;;;;;;;;;;;16.70;90.80;;;;;;5094688;28;19912;-93
2023/10/14 18:39:42;;;;;;;;;;;16.70;90.80;;;;;;5096521;28;19920;-93
2023/10/14 18:42:08;;;;;;;;;;;16.70;90.90;;;;;;5098561;28;19912;-91
2023/10/14 18:44:34;;;;;;;;;;;16.70;90.80;;;;;;5100149;28;19935;-92
2023/10/14 18:46:59;;;;;;;;;;;16.70;90.80;;;;;;5109819;28;19912;-92
2023/10/14 18:49:29;;;;;;;;;;;16.70;90.70;;;;;;5115158;28;19914;-93
2023/10/14 18:51:55;;;;;;;;;;;16.80;90.70;;;;;;5114435;28;19908;-93
2023/10/14 18:54:20;;;;;;;;;;;16.80;90.70;;;;;;5105381;28;20003;-94
2023/10/14 18:56:51;;;;;;;;;;;16.80;90.70;;;;;;5100685;28;19911;-96
2023/10/14 18:59:17;;;;;;;;;;;16.80;90.60;;;;;;5114317;28;19979;-93
2023/10/14 19:01:42;;;;;;;;;;;16.80;90.60;;;;;;5113600;28;19908;-96
2023/10/14 19:04:07;;;;;;;;;;;16.80;90.60;;;;;;5114890;28;19915;-93
2023/10/14 19:06:38;;;;;;;;;;;16.80;90.60;;;;;;5115800;28;20484;-94
2023/10/14 19:16:04;;;;;;;;;;;16.60;88.50;;;;;;4992249;28;2203742;-96
2023/10/14 19:18:30;;;;;;;;;;;16.50;89.40;;;;;;5027140;28;20262;-94
